sensor_id;sensor_type;location;lat;lon;timestamp;pressure;altitude;pressure_sealevel;temperature;humidity
53300;BME280;39187;48.476;8.310;2023-01-25T00:01:52;92440.03;;;-2.08;100.00
53300;BME280;39187;48.476;8.310;2023-01-25T00:04:19;92442.44;;;-2.11;100.00
53300;BME280;39187;48.476;8.310;2023-01-25T00:06:45;92440.63;;;-2.19;100.00
53300;BME280;39187;48.476;8.310;2023-01-25T00:09:11;92461.47;;;-2.11;100.00
53300;BME280;39187;48.476;8.310;2023-01-25T00:11:37;92438.81;;;-1.93;100.00
53300;BME280;39187;48.476;8.310;2023-01-25T00:14:04;92432.03;;;-2.03;100.00
53300;BME280;39187;48.476;8.310;2023-01-25T00:16:30;92433.41;;;-2.31;100.00
53300;BME280;39187;48.476;8.310;2023-01-25T00:18:55;92433.28;;;-2.00;100.00
53300;BME280;39187;48.476;8.310;2023-01-25T00:21:23;92431.56;;;-2.13;100.00
53300;BME280;39187;48.476;8.310;2023-01-25T00:23:49;92425.63;;;-2.05;100.00
53300;BME280;39187;48.476;8.310;2023-01-25T00:26:15;92418.09;;;-2.07;100.00
53300;BME280;39187;48.476;8.310;2023-01-25T00:28:41;92416.06;;;-2.27;100.00
53300;BME280;39187;48.476;8.310;2023-01-25T00:31:09;92426.50;;;-2.10;100.00
53300;BME280;39187;48.476;8.310;2023-01-25T00:33:49;92410.53;;;-2.17;100.00
53300;BME280;39187;48.476;8.310;2023-01-25T00:38:59;92421.31;;;-2.18;100.00
53300;BME280;39187;48.476;8.310;2023-01-25T00:41:24;92434.81;;;-2.08;100.00
53300;BME280;39187;48.476;8.310;2023-01-25T00:43:50;92418.34;;;-2.34;100.00
53300;BME280;39187;48.476;8.310;2023-01-25T00:46:17;92415.78;;;-2.08;100.00
53300;BME280;39187;48.476;8.310;2023-01-25T00:48:43;92425.41;;;-2.34;100.00
53300;BME280;39187;48.476;8.310;2023-01-25T00:51:09;92416.97;;;-2.31;100.00
53300;BME280;39187;48.476;8.310;2023-01-25T00:53:34;92419.28;;;-2.21;100.00
53300;BME280;39187;48.476;8.310;2023-01-25T00:56:00;92418.97;;;-2.11;100.00
53300;BME280;39187;48.476;8.310;2023-01-25T00:58:26;92411.16;;;-2.37;100.00
53300;BME280;39187;48.476;8.310;2023-01-25T01:00:52;92416.56;;;-2.08;100.00
53300;BME280;39187;48.476;8.310;2023-01-25T01:03:18;92406.09;;;-2.16;100.00
53300;BME280;39187;48.476;8.310;2023-01-25T01:05:44;92399.81;;;-1.89;100.00
53300;BME280;39187;48.476;8.310;2023-01-25T01:08:11;92408.25;;;-2.18;100.00
53300;BME280;39187;48.476;8.310;2023-01-25T01:10:37;92393.97;;;-2.21;100.00
53300;BME280;39187;48.476;8.310;2023-01-25T01:13:02;92399.06;;;-1.98;100.00
53300;BME280;39187;48.476;8.310;2023-01-25T01:15:28;92412.41;;;-2.09;100.00
53300;BME280;39187;48.476;8.310;2023-01-25T01:17:53;92408.06;;;-2.30;100.00
53300;BME280;39187;48.476;8.310;2023-01-25T01:20:19;92414.41;;;-2.06;100.00
53300;BME280;39187;48.476;8.310;2023-01-25T01:22:45;92427.72;;;-2.24;100.00
53300;BME280;39187;48.476;8.310;2023-01-25T01:25:10;92410.41;;;-2.20;100.00
53300;BME280;39187;48.476;8.310;2023-01-25T01:27:37;92422.81;;;-2.17;100.00
53300;BME280;39187;48.476;8.310;2023-01-25T01:30:04;92412.72;;;-2.19;100.00
53300;BME280;39187;48.476;8.310;2023-01-25T01:32:30;92408.13;;;-1.96;100.00
53300;BME280;39187;48.476;8.310;2023-01-25T01:34:55;92411.00;;;-2.15;100.00
53300;BME280;39187;48.476;8.310;2023-01-25T01:37:21;92413.75;;;-2.11;100.00
53300;BME280;39187;48.476;8.310;2023-01-25T01:39:46;92400.44;;;-2.01;100.00
53300;BME280;39187;48.476;8.310;2023-01-25T01:42:11;92409.94;;;-2.14;100.00
53300;BME280;39187;48.476;8.310;2023-01-25T01:44:49;92404.28;;;-2.07;100.00
53300;BME280;39187;48.476;8.310;2023-01-25T01:49:58;92396.28;;;-2.19;100.00
53300;BME280;39187;48.476;8.310;2023-01-25T01:52:29;92393.19;;;-2.38;100.00
53300;BME280;39187;48.476;8.310;2023-01-25T01:55:17;92398.59;;;-2.09;100.00
53300;BME280;39187;48.476;8.310;2023-01-25T01:57:55;92392.72;;;-2.40;100.00
53300;BME280;39187;48.476;8.310;2023-01-25T02:00:26;92391.53;;;-2.26;100.00
53300;BME280;39187;48.476;8.310;2023-01-25T02:02:53;92410.97;;;-2.40;100.00
53300;BME280;39187;48.476;8.310;2023-01-25T02:05:26;92401.63;;;-2.42;100.00
53300;BME280;39187;48.476;8.310;2023-01-25T02:07:54;92405.63;;;-2.27;100.00
53300;BME280;39187;48.476;8.310;2023-01-25T02:10:23;92404.22;;;-2.42;100.00
53300;BME280;39187;48.476;8.310;2023-01-25T02:12:51;92393.50;;;-2.40;100.00
53300;BME280;39187;48.476;8.310;2023-01-25T02:15:19;92404.09;;;-2.28;100.00
53300;BME280;39187;48.476;8.310;2023-01-25T02:17:44;92391.84;;;-2.19;100.00
53300;BME280;39187;48.476;8.310;2023-01-25T02:20:27;92397.28;;;-2.55;100.00
53300;BME280;39187;48.476;8.310;2023-01-25T02:25:44;92394.25;;;-2.39;100.00
53300;BME280;39187;48.476;8.310;2023-01-25T02:28:18;92383.72;;;-2.09;100.00
53300;BME280;39187;48.476;8.310;2023-01-25T02:30:45;92385.38;;;-2.21;100.00
53300;BME280;39187;48.476;8.310;2023-01-25T02:33:11;92387.38;;;-2.27;100.00
53300;BME280;39187;48.476;8.310;2023-01-25T02:35:43;92395.19;;;-2.35;100.00
53300;BME280;39187;48.476;8.310;2023-01-25T02:38:14;92397.22;;;-2.15;100.00
53300;BME280;39187;48.476;8.310;2023-01-25T02:40:53;92386.91;;;-2.29;100.00
53300;BME280;39187;48.476;8.310;2023-01-25T02:43:22;92400.75;;;-2.20;100.00
53300;BME280;39187;48.476;8.310;2023-01-25T02:45:54;92382.47;;;-2.37;100.00
53300;BME280;39187;48.476;8.310;2023-01-25T02:48:22;92378.66;;;-2.14;100.00
53300;BME280;39187;48.476;8.310;2023-01-25T02:50:48;92387.06;;;-2.17;100.00
53300;BME280;39187;48.476;8.310;2023-01-25T02:53:13;92391.34;;;-2.29;100.00
53300;BME280;39187;48.476;8.310;2023-01-25T02:55:38;92387.09;;;-2.25;100.00
53300;BME280;39187;48.476;8.310;2023-01-25T02:58:04;92381.88;;;-2.25;100.00
53300;BME280;39187;48.476;8.310;2023-01-25T03:00:29;92382.31;;;-2.32;100.00
53300;BME280;39187;48.476;8.310;2023-01-25T03:02:55;92368.97;;;-2.22;100.00
53300;BME280;39187;48.476;8.310;2023-01-25T03:05:20;92381.41;;;-2.27;100.00
53300;BME280;39187;48.476;8.310;2023-01-25T03:07:46;92367.44;;;-2.31;100.00
53300;BME280;39187;48.476;8.310;2023-01-25T03:10:12;92374.78;;;-2.51;100.00
53300;BME280;39187;48.476;8.310;2023-01-25T03:12:38;92369.13;;;-2.35;100.00
53300;BME280;39187;48.476;8.310;2023-01-25T03:15:04;92356.56;;;-2.16;100.00
53300;BME280;39187;48.476;8.310;2023-01-25T03:17:29;92362.09;;;-2.00;100.00
53300;BME280;39187;48.476;8.310;2023-01-25T03:19:55;92353.19;;;-2.17;100.00
53300;BME280;39187;48.476;8.310;2023-01-25T03:22:20;92351.34;;;-2.08;100.00
53300;BME280;39187;48.476;8.310;2023-01-25T03:24:46;92369.59;;;-2.16;100.00
53300;BME280;39187;48.476;8.310;2023-01-25T03:27:11;92354.72;;;-2.24;100.00
53300;BME280;39187;48.476;8.310;2023-01-25T03:29:43;92356.09;;;-2.27;100.00
53300;BME280;39187;48.476;8.310;2023-01-25T03:32:09;92356.69;;;-2.30;100.00
53300;BME280;39187;48.476;8.310;2023-01-25T03:34:35;92342.31;;;-2.19;100.00
53300;BME280;39187;48.476;8.310;2023-01-25T03:37:00;92347.66;;;-2.41;100.00
53300;BME280;39187;48.476;8.310;2023-01-25T03:39:27;92337.69;;;-2.22;100.00
53300;BME280;39187;48.476;8.310;2023-01-25T03:41:52;92356.88;;;-2.26;100.00
53300;BME280;39187;48.476;8.310;2023-01-25T03:44:18;92354.25;;;-2.26;100.00
53300;BME280;39187;48.476;8.310;2023-01-25T03:46:43;92350.56;;;-2.34;100.00
53300;BME280;39187;48.476;8.310;2023-01-25T03:49:09;92339.38;;;-2.17;100.00
53300;BME280;39187;48.476;8.310;2023-01-25T03:51:35;92346.25;;;-2.30;100.00
53300;BME280;39187;48.476;8.310;2023-01-25T03:54:00;92348.13;;;-2.22;100.00
53300;BME280;39187;48.476;8.310;2023-01-25T03:56:26;92345.50;;;-2.30;100.00
53300;BME280;39187;48.476;8.310;2023-01-25T03:58:51;92350.13;;;-2.27;100.00
53300;BME280;39187;48.476;8.310;2023-01-25T04:01:17;92342.13;;;-2.39;100.00
53300;BME280;39187;48.476;8.310;2023-01-25T04:03:43;92347.50;;;-2.36;100.00
53300;BME280;39187;48.476;8.310;2023-01-25T04:06:08;92347.50;;;-2.36;100.00
53300;BME280;39187;48.476;8.310;2023-01-25T04:08:34;92332.91;;;-2.63;100.00
53300;BME280;39187;48.476;8.310;2023-01-25T04:11:04;92349.31;;;-2.36;100.00
53300;BME280;39187;48.476;8.310;2023-01-25T04:13:30;92340.44;;;-2.44;100.00
53300;BME280;39187;48.476;8.310;2023-01-25T04:15:55;92333.25;;;-2.21;100.00
53300;BME280;39187;48.476;8.310;2023-01-25T04:18:21;92346.56;;;-2.57;100.00
53300;BME280;39187;48.476;8.310;2023-01-25T04:20:53;92327.41;;;-2.44;100.00
53300;BME280;39187;48.476;8.310;2023-01-25T04:23:19;92326.97;;;-2.37;100.00
53300;BME280;39187;48.476;8.310;2023-01-25T04:26:02;92329.25;;;-2.45;100.00
53300;BME280;39187;48.476;8.310;2023-01-25T04:28:29;92319.44;;;-2.56;100.00
53300;BME280;39187;48.476;8.310;2023-01-25T04:30:56;92326.31;;;-2.43;100.00
53300;BME280;39187;48.476;8.310;2023-01-25T04:33:22;92332.16;;;-2.29;100.00
53300;BME280;39187;48.476;8.310;2023-01-25T04:35:48;92326.19;;;-2.38;100.00
53300;BME280;39187;48.476;8.310;2023-01-25T04:38:14;92335.06;;;-2.05;100.00
53300;BME280;39187;48.476;8.310;2023-01-25T04:40:40;92328.50;;;-2.19;100.00
53300;BME280;39187;48.476;8.310;2023-01-25T04:43:06;92324.50;;;-2.25;100.00
53300;BME280;39187;48.476;8.310;2023-01-25T04:45:32;92321.59;;;-2.07;100.00
53300;BME280;39187;48.476;8.310;2023-01-25T04:48:05;92339.22;;;-2.29;100.00
53300;BME280;39187;48.476;8.310;2023-01-25T04:50:37;92317.75;;;-2.26;100.00
53300;BME280;39187;48.476;8.310;2023-01-25T04:53:03;92323.56;;;-2.55;100.00
53300;BME280;39187;48.476;8.310;2023-01-25T04:55:29;92326.66;;;-2.45;100.00
53300;BME280;39187;48.476;8.310;2023-01-25T04:57:54;92321.25;;;-2.48;100.00
53300;BME280;39187;48.476;8.310;2023-01-25T05:00:20;92321.56;;;-2.58;100.00
53300;BME280;39187;48.476;8.310;2023-01-25T05:02:45;92322.78;;;-2.64;100.00
53300;BME280;39187;48.476;8.310;2023-01-25T05:05:11;92315.75;;;-2.64;100.00
53300;BME280;39187;48.476;8.310;2023-01-25T05:07:37;92320.97;;;-2.64;100.00
53300;BME280;39187;48.476;8.310;2023-01-25T05:10:03;92315.44;;;-2.54;100.00
53300;BME280;39187;48.476;8.310;2023-01-25T05:12:28;92310.84;;;-2.48;100.00
53300;BME280;39187;48.476;8.310;2023-01-25T05:14:54;92304.72;;;-2.52;100.00
53300;BME280;39187;48.476;8.310;2023-01-25T05:17:20;92307.47;;;-2.49;100.00
53300;BME280;39187;48.476;8.310;2023-01-25T05:19:45;92315.72;;;-2.55;100.00
53300;BME280;39187;48.476;8.310;2023-01-25T05:22:15;92311.16;;;-2.58;100.00
53300;BME280;39187;48.476;8.310;2023-01-25T05:24:41;92305.94;;;-2.50;100.00
53300;BME280;39187;48.476;8.310;2023-01-25T05:27:08;92300.72;;;-2.41;100.00
53300;BME280;39187;48.476;8.310;2023-01-25T05:29:41;92301.97;;;-2.38;100.00
53300;BME280;39187;48.476;8.310;2023-01-25T05:32:15;92307.94;;;-2.47;100.00
53300;BME280;39187;48.476;8.310;2023-01-25T05:34:42;92314.69;;;-2.37;100.00
53300;BME280;39187;48.476;8.310;2023-01-25T05:37:09;92312.69;;;-2.40;100.00
53300;BME280;39187;48.476;8.310;2023-01-25T05:39:35;92312.06;;;-2.28;100.00
53300;BME280;39187;48.476;8.310;2023-01-25T05:42:01;92305.47;;;-2.34;100.00
53300;BME280;39187;48.476;8.310;2023-01-25T05:44:26;92295.53;;;-2.32;100.00
53300;BME280;39187;48.476;8.310;2023-01-25T05:46:52;92306.09;;;-2.37;100.00
53300;BME280;39187;48.476;8.310;2023-01-25T05:49:18;92304.88;;;-2.31;100.00
53300;BME280;39187;48.476;8.310;2023-01-25T05:51:44;92299.19;;;-2.42;100.00
53300;BME280;39187;48.476;8.310;2023-01-25T05:54:15;92294.59;;;-2.45;100.00
53300;BME280;39187;48.476;8.310;2023-01-25T05:56:42;92290.91;;;-2.35;100.00
53300;BME280;39187;48.476;8.310;2023-01-25T05:59:09;92297.66;;;-2.17;100.00
53300;BME280;39187;48.476;8.310;2023-01-25T06:01:35;92299.50;;;-2.35;100.00
53300;BME280;39187;48.476;8.310;2023-01-25T06:04:01;92301.66;;;-2.63;100.00
53300;BME280;39187;48.476;8.310;2023-01-25T06:06:27;92301.34;;;-2.53;100.00
53300;BME280;39187;48.476;8.310;2023-01-25T06:08:52;92310.09;;;-2.57;100.00
53300;BME280;39187;48.476;8.310;2023-01-25T06:11:21;92308.38;;;-2.70;100.00
53300;BME280;39187;48.476;8.310;2023-01-25T06:13:49;92301.19;;;-2.39;100.00
53300;BME280;39187;48.476;8.310;2023-01-25T06:16:16;92302.56;;;-2.42;100.00
53300;BME280;39187;48.476;8.310;2023-01-25T06:18:42;92297.53;;;-2.38;100.00
53300;BME280;39187;48.476;8.310;2023-01-25T06:21:08;92290.91;;;-2.53;100.00
53300;BME280;39187;48.476;8.310;2023-01-25T06:23:34;92292.91;;;-2.58;100.00
53300;BME280;39187;48.476;8.310;2023-01-25T06:26:03;92307.91;;;-2.55;100.00
53300;BME280;39187;48.476;8.310;2023-01-25T06:28:30;92299.03;;;-2.54;100.00
53300;BME280;39187;48.476;8.310;2023-01-25T06:31:02;92302.41;;;-2.54;100.00
53300;BME280;39187;48.476;8.310;2023-01-25T06:33:28;92293.81;;;-2.54;100.00
53300;BME280;39187;48.476;8.310;2023-01-25T06:35:58;92286.75;;;-2.71;100.00
53300;BME280;39187;48.476;8.310;2023-01-25T06:38:24;92292.44;;;-2.69;100.00
53300;BME280;39187;48.476;8.310;2023-01-25T06:40:49;92276.03;;;-2.69;100.00
53300;BME280;39187;48.476;8.310;2023-01-25T06:43:15;92277.41;;;-2.55;100.00
53300;BME280;39187;48.476;8.310;2023-01-25T06:45:40;92284.47;;;-2.55;100.00
53300;BME280;39187;48.476;8.310;2023-01-25T06:48:06;92284.16;;;-2.71;100.00
53300;BME280;39187;48.476;8.310;2023-01-25T06:50:31;92271.59;;;-2.52;100.00
53300;BME280;39187;48.476;8.310;2023-01-25T06:52:57;92288.44;;;-2.75;100.00
53300;BME280;39187;48.476;8.310;2023-01-25T06:55:23;92291.38;;;-2.59;100.00
53300;BME280;39187;48.476;8.310;2023-01-25T06:57:48;92295.78;;;-2.68;100.00
53300;BME280;39187;48.476;8.310;2023-01-25T07:00:17;92282.47;;;-2.67;100.00
53300;BME280;39187;48.476;8.310;2023-01-25T07:02:43;92291.66;;;-2.78;100.00
53300;BME280;39187;48.476;8.310;2023-01-25T07:05:08;92284.94;;;-2.70;100.00
53300;BME280;39187;48.476;8.310;2023-01-25T07:07:34;92268.97;;;-2.60;100.00
53300;BME280;39187;48.476;8.310;2023-01-25T07:10:00;92283.25;;;-2.49;100.00
53300;BME280;39187;48.476;8.310;2023-01-25T07:12:28;92278.47;;;-2.82;100.00
53300;BME280;39187;48.476;8.310;2023-01-25T07:14:54;92273.75;;;-2.54;100.00
53300;BME280;39187;48.476;8.310;2023-01-25T07:17:20;92269.13;;;-2.65;100.00
53300;BME280;39187;48.476;8.310;2023-01-25T07:19:46;92283.38;;;-2.80;100.00
53300;BME280;39187;48.476;8.310;2023-01-25T07:22:11;92280.78;;;-2.71;100.00
53300;BME280;39187;48.476;8.310;2023-01-25T07:24:36;92272.53;;;-2.56;100.00
53300;BME280;39187;48.476;8.310;2023-01-25T07:27:02;92273.28;;;-2.47;100.00
53300;BME280;39187;48.476;8.310;2023-01-25T07:29:28;92275.72;;;-2.68;100.00
53300;BME280;39187;48.476;8.310;2023-01-25T07:31:54;92273.13;;;-2.68;100.00
53300;BME280;39187;48.476;8.310;2023-01-25T07:34:20;92263.31;;;-2.54;100.00
53300;BME280;39187;48.476;8.310;2023-01-25T07:36:46;92265.31;;;-2.59;100.00
53300;BME280;39187;48.476;8.310;2023-01-25T07:39:11;92261.03;;;-2.64;100.00
53300;BME280;39187;48.476;8.310;2023-01-25T07:41:38;92266.06;;;-2.59;100.00
53300;BME280;39187;48.476;8.310;2023-01-25T07:44:04;92260.72;;;-2.54;100.00
53300;BME280;39187;48.476;8.310;2023-01-25T07:46:32;92256.13;;;-2.65;100.00
53300;BME280;39187;48.476;8.310;2023-01-25T07:48:58;92253.34;;;-2.34;100.00
53300;BME280;39187;48.476;8.310;2023-01-25T07:51:24;92253.50;;;-2.74;100.00
53300;BME280;39187;48.476;8.310;2023-01-25T07:54:00;92248.44;;;-2.79;100.00
53300;BME280;39187;48.476;8.310;2023-01-25T07:56:31;92245.84;;;-2.45;100.00
53300;BME280;39187;48.476;8.310;2023-01-25T07:58:58;92246.16;;;-2.46;100.00
53300;BME280;39187;48.476;8.310;2023-01-25T08:01:26;92255.78;;;-2.29;100.00
53300;BME280;39187;48.476;8.310;2023-01-25T08:03:53;92250.75;;;-2.34;100.00
53300;BME280;39187;48.476;8.310;2023-01-25T08:06:28;92253.19;;;-2.55;100.00
53300;BME280;39187;48.476;8.310;2023-01-25T08:08:57;92242.44;;;-2.36;100.00
53300;BME280;39187;48.476;8.310;2023-01-25T08:11:25;92239.06;;;-2.20;100.00
53300;BME280;39187;48.476;8.310;2023-01-25T08:13:51;92242.28;;;-2.14;100.00
53300;BME280;39187;48.476;8.310;2023-01-25T08:16:25;92243.06;;;-2.14;100.00
53300;BME280;39187;48.476;8.310;2023-01-25T08:18:54;92249.53;;;-2.37;100.00
53300;BME280;39187;48.476;8.310;2023-01-25T08:21:21;92248.56;;;-2.24;100.00
53300;BME280;39187;48.476;8.310;2023-01-25T08:23:48;92245.38;;;-2.55;100.00
53300;BME280;39187;48.476;8.310;2023-01-25T08:26:14;92247.22;;;-2.38;100.00
53300;BME280;39187;48.476;8.310;2023-01-25T08:28:41;92250.56;;;-2.12;100.00
53300;BME280;39187;48.476;8.310;2023-01-25T08:31:15;92235.88;;;-2.25;100.00
53300;BME280;39187;48.476;8.310;2023-01-25T08:33:43;92239.38;;;-2.56;100.00
53300;BME280;39187;48.476;8.310;2023-01-25T08:36:11;92231.41;;;-2.42;100.00
53300;BME280;39187;48.476;8.310;2023-01-25T08:38:37;92232.16;;;-2.07;100.00
53300;BME280;39187;48.476;8.310;2023-01-25T08:41:21;92230.78;;;-2.22;100.00
53300;BME280;39187;48.476;8.310;2023-01-25T08:43:47;92244.91;;;-2.40;100.00
53300;BME280;39187;48.476;8.310;2023-01-25T08:46:15;92238.94;;;-2.58;100.00
53300;BME280;39187;48.476;8.310;2023-01-25T08:48:40;92233.88;;;-2.54;100.00
53300;BME280;39187;48.476;8.310;2023-01-25T08:51:14;92230.69;;;-2.51;100.00
53300;BME280;39187;48.476;8.310;2023-01-25T08:53:41;92232.50;;;-2.26;100.00
53300;BME280;39187;48.476;8.310;2023-01-25T08:56:13;92238.56;;;-1.96;100.00
53300;BME280;39187;48.476;8.310;2023-01-25T08:58:41;92241.94;;;-1.95;100.00
53300;BME280;39187;48.476;8.310;2023-01-25T09:01:09;92230.78;;;-2.13;100.00
53300;BME280;39187;48.476;8.310;2023-01-25T09:03:37;92229.88;;;-2.26;100.00
53300;BME280;39187;48.476;8.310;2023-01-25T09:06:03;92221.44;;;-2.23;100.00
53300;BME280;39187;48.476;8.310;2023-01-25T09:08:29;92217.91;;;-2.27;100.00
53300;BME280;39187;48.476;8.310;2023-01-25T09:11:00;92222.78;;;-1.99;100.00
53300;BME280;39187;48.476;8.310;2023-01-25T09:13:26;92232.78;;;-2.36;100.00
53300;BME280;39187;48.476;8.310;2023-01-25T09:15:51;92224.84;;;-2.48;100.00
53300;BME280;39187;48.476;8.310;2023-01-25T09:18:22;92226.97;;;-2.33;100.00
53300;BME280;39187;48.476;8.310;2023-01-25T09:20:48;92227.00;;;-2.59;100.00
53300;BME280;39187;48.476;8.310;2023-01-25T09:23:13;92214.09;;;-2.38;100.00
53300;BME280;39187;48.476;8.310;2023-01-25T09:25:39;92216.09;;;-2.35;100.00
53300;BME280;39187;48.476;8.310;2023-01-25T09:28:04;92228.94;;;-2.30;100.00
53300;BME280;39187;48.476;8.310;2023-01-25T09:30:36;92224.22;;;-2.54;100.00
53300;BME280;39187;48.476;8.310;2023-01-25T09:33:02;92223.47;;;-2.54;100.00
53300;BME280;39187;48.476;8.310;2023-01-25T09:35:29;92221.47;;;-2.83;100.00
53300;BME280;39187;48.476;8.310;2023-01-25T09:37:55;92216.41;;;-2.54;100.00
53300;BME280;39187;48.476;8.310;2023-01-25T09:40:22;92220.09;;;-2.37;100.00
53300;BME280;39187;48.476;8.310;2023-01-25T09:43:08;92207.53;;;-2.44;100.00
53300;BME280;39187;48.476;8.310;2023-01-25T09:45:37;92208.72;;;-2.24;100.00
53300;BME280;39187;48.476;8.310;2023-01-25T09:48:28;92212.84;;;-2.23;100.00
53300;BME280;39187;48.476;8.310;2023-01-25T09:53:48;92204.66;;;-1.96;100.00
53300;BME280;39187;48.476;8.310;2023-01-25T09:56:25;92207.41;;;-1.92;100.00
53300;BME280;39187;48.476;8.310;2023-01-25T09:58:56;92201.72;;;-1.86;100.00
53300;BME280;39187;48.476;8.310;2023-01-25T10:01:59;92201.69;;;-2.41;100.00
53300;BME280;39187;48.476;8.310;2023-01-25T10:04:36;92201.16;;;-2.09;100.00
53300;BME280;39187;48.476;8.310;2023-01-25T10:08:12;92202.53;;;-2.03;100.00
53300;BME280;39187;48.476;8.310;2023-01-25T10:10:17;92192.75;;;-2.23;100.00
53300;BME280;39187;48.476;8.310;2023-01-25T10:12:45;92197.81;;;-2.18;100.00
53300;BME280;39187;48.476;8.310;2023-01-25T10:15:20;92197.47;;;-1.99;100.00
53300;BME280;39187;48.476;8.310;2023-01-25T10:20:49;92197.19;;;-2.23;100.00
53300;BME280;39187;48.476;8.310;2023-01-25T10:26:26;92199.66;;;-2.35;100.00
53300;BME280;39187;48.476;8.310;2023-01-25T10:31:51;92202.16;;;-1.84;100.00
53300;BME280;39187;48.476;8.310;2023-01-25T10:36:54;92192.25;;;-1.99;100.00
53300;BME280;39187;48.476;8.310;2023-01-25T10:39:21;92196.84;;;-1.58;100.00
53300;BME280;39187;48.476;8.310;2023-01-25T10:41:58;92193.63;;;-2.02;100.00
53300;BME280;39187;48.476;8.310;2023-01-25T10:44:26;92188.00;;;-2.21;100.00
53300;BME280;39187;48.476;8.310;2023-01-25T10:47:17;92196.53;;;-2.03;100.00
53300;BME280;39187;48.476;8.310;2023-01-25T10:49:50;92178.44;;;-1.99;100.00
53300;BME280;39187;48.476;8.310;2023-01-25T10:52:17;92177.50;;;-2.04;100.00
53300;BME280;39187;48.476;8.310;2023-01-25T10:54:44;92171.56;;;-2.13;100.00
53300;BME280;39187;48.476;8.310;2023-01-25T10:57:16;92165.81;;;-1.89;100.00
53300;BME280;39187;48.476;8.310;2023-01-25T10:59:45;92167.63;;;-2.27;100.00
53300;BME280;39187;48.476;8.310;2023-01-25T11:02:43;92168.53;;;-1.85;100.00
53300;BME280;39187;48.476;8.310;2023-01-25T11:07:46;92161.59;;;-1.73;100.00
53300;BME280;39187;48.476;8.310;2023-01-25T11:10:29;92152.88;;;-1.77;100.00
53300;BME280;39187;48.476;8.310;2023-01-25T11:15:53;92149.63;;;-1.44;100.00
53300;BME280;39187;48.476;8.310;2023-01-25T11:18:52;92144.00;;;-1.84;100.00
53300;BME280;39187;48.476;8.310;2023-01-25T11:21:23;92144.28;;;-1.77;100.00
53300;BME280;39187;48.476;8.310;2023-01-25T11:26:35;92150.66;;;-1.66;100.00
53300;BME280;39187;48.476;8.310;2023-01-25T11:32:23;92139.59;;;-1.63;100.00
53300;BME280;39187;48.476;8.310;2023-01-25T11:34:49;92146.38;;;-1.71;100.00
53300;BME280;39187;48.476;8.310;2023-01-25T11:37:31;92137.88;;;-1.88;100.00
53300;BME280;39187;48.476;8.310;2023-01-25T11:56:32;92102.47;;;-1.98;100.00
53300;BME280;39187;48.476;8.310;2023-01-25T12:08:12;92082.09;;;-1.75;100.00
53300;BME280;39187;48.476;8.310;2023-01-25T12:11:29;92078.47;;;-2.12;100.00
53300;BME280;39187;48.476;8.310;2023-01-25T12:25:53;92051.09;;;-1.77;100.00
53300;BME280;39187;48.476;8.310;2023-01-25T12:28:56;92040.00;;;-1.44;100.00
53300;BME280;39187;48.476;8.310;2023-01-25T12:31:36;92037.44;;;-1.74;100.00
53300;BME280;39187;48.476;8.310;2023-01-25T12:34:14;92035.94;;;-1.54;100.00
53300;BME280;39187;48.476;8.310;2023-01-25T12:36:45;92027.38;;;-1.63;100.00
53300;BME280;39187;48.476;8.310;2023-01-25T12:39:12;92030.31;;;-1.44;100.00
53300;BME280;39187;48.476;8.310;2023-01-25T12:41:42;92026.41;;;-2.00;100.00
53300;BME280;39187;48.476;8.310;2023-01-25T12:50:03;92022.22;;;-1.92;100.00
53300;BME280;39187;48.476;8.310;2023-01-25T12:52:36;92012.63;;;-2.09;100.00
53300;BME280;39187;48.476;8.310;2023-01-25T12:55:14;92012.09;;;-2.23;100.00
53300;BME280;39187;48.476;8.310;2023-01-25T12:58:31;92014.06;;;-1.91;100.00
53300;BME280;39187;48.476;8.310;2023-01-25T13:07:00;92004.16;;;-1.56;100.00
53300;BME280;39187;48.476;8.310;2023-01-25T13:09:40;91997.97;;;-1.72;100.00
53300;BME280;39187;48.476;8.310;2023-01-25T13:12:10;91997.19;;;-1.52;100.00
53300;BME280;39187;48.476;8.310;2023-01-25T13:14:39;91995.88;;;-1.99;100.00
53300;BME280;39187;48.476;8.310;2023-01-25T13:17:21;91983.88;;;-2.21;100.00
53300;BME280;39187;48.476;8.310;2023-01-25T13:19:48;91985.75;;;-2.30;100.00
53300;BME280;39187;48.476;8.310;2023-01-25T13:25:19;91974.81;;;-2.24;100.00
53300;BME280;39187;48.476;8.310;2023-01-25T13:27:45;91982.59;;;-2.15;100.00
53300;BME280;39187;48.476;8.310;2023-01-25T13:30:34;91970.97;;;-1.97;100.00
53300;BME280;39187;48.476;8.310;2023-01-25T13:33:02;91967.69;;;-2.06;100.00
53300;BME280;39187;48.476;8.310;2023-01-25T13:35:34;91964.94;;;-1.89;100.00
53300;BME280;39187;48.476;8.310;2023-01-25T13:38:23;91955.84;;;-1.83;100.00
53300;BME280;39187;48.476;8.310;2023-01-25T13:41:12;91962.41;;;-1.77;100.00
53300;BME280;39187;48.476;8.310;2023-01-25T13:43:43;91965.06;;;-2.06;100.00
53300;BME280;39187;48.476;8.310;2023-01-25T13:46:12;91961.97;;;-2.29;100.00
53300;BME280;39187;48.476;8.310;2023-01-25T13:48:54;91951.78;;;-2.43;100.00
53300;BME280;39187;48.476;8.310;2023-01-25T13:51:23;91945.72;;;-2.26;100.00
53300;BME280;39187;48.476;8.310;2023-01-25T13:53:57;91941.00;;;-1.91;100.00
53300;BME280;39187;48.476;8.310;2023-01-25T13:56:29;91947.06;;;-1.78;100.00
53300;BME280;39187;48.476;8.310;2023-01-25T13:58:55;91945.78;;;-2.14;100.00
53300;BME280;39187;48.476;8.310;2023-01-25T14:01:24;91932.94;;;-2.19;100.00
53300;BME280;39187;48.476;8.310;2023-01-25T14:03:58;91933.50;;;-2.13;100.00
53300;BME280;39187;48.476;8.310;2023-01-25T14:06:42;91932.88;;;-2.10;100.00
53300;BME280;39187;48.476;8.310;2023-01-25T14:09:16;91929.56;;;-2.78;100.00
53300;BME280;39187;48.476;8.310;2023-01-25T14:11:50;91935.31;;;-2.93;100.00
53300;BME280;39187;48.476;8.310;2023-01-25T14:16:43;91919.50;;;-2.50;100.00
53300;BME280;39187;48.476;8.310;2023-01-25T14:19:26;91914.63;;;-2.60;100.00
53300;BME280;39187;48.476;8.310;2023-01-25T14:22:29;91915.44;;;-2.68;100.00
53300;BME280;39187;48.476;8.310;2023-01-25T14:25:18;91906.97;;;-2.57;100.00
53300;BME280;39187;48.476;8.310;2023-01-25T14:27:52;91904.63;;;-2.08;100.00
53300;BME280;39187;48.476;8.310;2023-01-25T14:32:47;91905.78;;;-1.97;100.00
53300;BME280;39187;48.476;8.310;2023-01-25T14:37:54;91913.19;;;-1.66;100.00